createdAt,value
2023-05-03T00:00:00.681Z,99.19
2023-05-03T00:02:49.426Z,99.62
2023-05-03T00:05:39.465Z,99.69
2023-05-03T00:08:27.975Z,99.42
2023-05-03T00:11:16.548Z,98.74
2023-05-03T00:14:05.092Z,98.63
2023-05-03T00:16:53.574Z,99.31
2023-05-03T00:19:42.548Z,100.00
2023-05-03T00:22:32.638Z,100.00
2023-05-03T00:25:21.176Z,100.00
2023-05-03T00:28:09.742Z,100.00
2023-05-03T00:30:58.320Z,100.00
2023-05-03T00:33:46.833Z,100.00
2023-05-03T00:36:37.058Z,100.00
2023-05-03T00:39:27.017Z,100.00
2023-05-03T00:42:15.526Z,100.00
2023-05-03T00:45:06.121Z,100.00
2023-05-03T00:47:54.747Z,100.00
2023-05-03T00:50:43.275Z,100.00
2023-05-03T00:53:32.467Z,100.00
2023-05-03T00:56:22.891Z,100.00
2023-05-03T00:59:12.968Z,100.00
2023-05-03T01:02:01.840Z,100.00
2023-05-03T01:04:50.824Z,100.00
2023-05-03T01:07:47.308Z,100.00
2023-05-03T01:10:41.049Z,100.00
2023-05-03T01:13:39.587Z,100.00
2023-05-03T01:16:32.966Z,100.00
2023-05-03T01:19:29.923Z,100.00
2023-05-03T01:22:23.521Z,100.00
2023-05-03T01:25:15.182Z,100.00
2023-05-03T01:28:03.690Z,100.00
2023-05-03T01:30:54.202Z,100.00
2023-05-03T01:33:50.356Z,100.00
2023-05-03T01:36:40.252Z,100.00
2023-05-03T01:39:33.463Z,100.00
2023-05-03T01:42:23.937Z,100.00
2023-05-03T01:45:13.359Z,100.00
2023-05-03T01:48:01.877Z,100.00
2023-05-03T01:50:50.405Z,100.00
2023-05-03T01:53:38.860Z,100.00
2023-05-03T01:56:27.337Z,100.00
2023-05-03T01:59:17.184Z,100.00
2023-05-03T02:02:05.727Z,100.00
2023-05-03T02:04:54.411Z,100.00
2023-05-03T02:07:43.159Z,100.00
2023-05-03T02:10:31.650Z,100.00
2023-05-03T02:13:20.128Z,100.00
2023-05-03T02:16:10.460Z,100.00
2023-05-03T02:18:59.641Z,100.00
2023-05-03T02:21:48.260Z,100.00
2023-05-03T02:24:37.364Z,100.00
2023-05-03T02:27:25.940Z,100.00
2023-05-03T02:30:14.628Z,100.00
2023-05-03T02:33:04.612Z,100.00
2023-05-03T02:35:53.236Z,100.00
2023-05-03T02:38:41.767Z,100.00
2023-05-03T02:41:30.277Z,100.00
2023-05-03T02:44:18.747Z,100.00
2023-05-03T02:47:07.473Z,100.00
2023-05-03T02:49:57.370Z,100.00
2023-05-03T02:52:46.267Z,100.00
2023-05-03T02:55:35.033Z,100.00
2023-05-03T02:58:23.529Z,100.00
2023-05-03T03:01:12.184Z,100.00
2023-05-03T03:04:01.088Z,100.00
2023-05-03T03:06:53.497Z,100.00
2023-05-03T03:09:42.100Z,100.00
2023-05-03T03:12:30.751Z,100.00
2023-05-03T03:15:19.316Z,100.00
2023-05-03T03:18:07.891Z,100.00
2023-05-03T03:20:56.536Z,100.00
2023-05-03T03:23:46.398Z,100.00
2023-05-03T03:26:34.870Z,100.00
2023-05-03T03:29:23.346Z,100.00
2023-05-03T03:32:11.849Z,100.00
2023-05-03T03:35:00.660Z,100.00
2023-05-03T03:37:49.100Z,100.00
2023-05-03T03:40:39.010Z,100.00
2023-05-03T03:43:27.608Z,100.00
2023-05-03T03:46:16.188Z,100.00
2023-05-03T03:49:04.814Z,100.00
2023-05-03T03:51:53.275Z,100.00
2023-05-03T03:54:41.734Z,100.00
2023-05-03T03:57:31.574Z,100.00
2023-05-03T04:00:20.201Z,100.00
2023-05-03T04:03:08.907Z,100.00
2023-05-03T04:05:57.509Z,100.00
2023-05-03T04:08:46.045Z,100.00
2023-05-03T04:11:34.965Z,100.00
2023-05-03T04:14:24.812Z,100.00
2023-05-03T04:17:13.305Z,100.00
2023-05-03T04:20:04.230Z,100.00
2023-05-03T04:22:52.955Z,100.00
2023-05-03T04:25:48.406Z,100.00
2023-05-03T04:28:38.386Z,100.00
2023-05-03T04:31:28.324Z,100.00
2023-05-03T04:34:16.923Z,100.00
2023-05-03T04:37:06.080Z,100.00
2023-05-03T04:39:54.591Z,100.00
2023-05-03T04:42:43.718Z,100.00
2023-05-03T04:45:32.413Z,100.00
2023-05-03T04:48:22.241Z,100.00
2023-05-03T04:51:10.706Z,100.00
2023-05-03T04:53:59.599Z,100.00
2023-05-03T04:56:48.113Z,100.00
2023-05-03T04:59:36.589Z,100.00
2023-05-03T05:02:27.053Z,100.00
2023-05-03T05:05:18.241Z,100.00
2023-05-03T05:08:08.939Z,100.00
2023-05-03T05:10:57.393Z,100.00
2023-05-03T05:13:45.900Z,100.00
2023-05-03T05:16:34.614Z,100.00
2023-05-03T05:19:23.285Z,100.00
2023-05-03T05:22:13.731Z,100.00
2023-05-03T05:25:02.234Z,100.00
2023-05-03T05:27:50.696Z,100.00
2023-05-03T05:30:39.202Z,100.00
2023-05-03T05:33:27.996Z,100.00
2023-05-03T05:36:19.631Z,100.00
2023-05-03T05:39:10.125Z,100.00
2023-05-03T05:41:58.559Z,100.00
2023-05-03T05:44:47.035Z,100.00
2023-05-03T05:47:35.624Z,100.00
2023-05-03T05:50:24.233Z,100.00
2023-05-03T05:53:12.762Z,100.00
2023-05-03T05:56:02.865Z,100.00
2023-05-03T05:58:51.545Z,100.00
2023-05-03T06:01:41.667Z,100.00
2023-05-03T06:04:30.278Z,100.00
2023-05-03T06:07:18.811Z,100.00
2023-05-03T06:10:08.488Z,100.00
2023-05-03T06:12:58.492Z,99.94
2023-05-03T06:15:47.108Z,95.78
2023-05-03T06:18:35.650Z,97.25
2023-05-03T06:21:24.127Z,95.60
2023-05-03T06:24:12.905Z,92.10
2023-05-03T06:27:01.363Z,91.69
2023-05-03T06:29:51.474Z,92.78
2023-05-03T06:32:40.813Z,90.96
2023-05-03T06:35:29.405Z,89.42
2023-05-03T06:38:18.568Z,89.34
2023-05-03T06:41:07.069Z,88.76
2023-05-03T06:43:55.660Z,87.60
2023-05-03T06:46:45.648Z,86.83
2023-05-03T06:49:34.189Z,86.36
2023-05-03T06:52:22.681Z,83.35
2023-05-03T06:55:11.526Z,83.34
2023-05-03T06:58:00.561Z,83.88
2023-05-03T07:00:53.163Z,84.14
2023-05-03T07:03:43.147Z,82.66
2023-05-03T07:06:35.537Z,82.54
2023-05-03T07:09:42.813Z,80.52
2023-05-03T07:12:31.974Z,80.10
2023-05-03T07:15:20.717Z,79.14
2023-05-03T07:18:09.228Z,79.38
2023-05-03T07:21:01.655Z,78.63
2023-05-03T07:23:50.123Z,76.12
2023-05-03T07:26:38.616Z,75.38
2023-05-03T07:29:27.431Z,75.70
2023-05-03T07:32:16.680Z,75.17
2023-05-03T07:35:09.970Z,74.00
2023-05-03T07:37:59.862Z,71.60
2023-05-03T07:40:48.298Z,72.96
2023-05-03T07:43:36.841Z,71.88
2023-05-03T07:46:25.578Z,71.09
2023-05-03T07:49:14.228Z,71.26
2023-05-03T07:52:03.582Z,70.72
2023-05-03T07:54:54.141Z,69.86
2023-05-03T07:57:43.276Z,69.28
2023-05-03T08:00:31.948Z,70.54
2023-05-03T08:03:20.625Z,69.98
2023-05-03T08:06:09.341Z,69.26
2023-05-03T08:08:57.898Z,69.31
2023-05-03T08:11:47.743Z,67.88
2023-05-03T08:14:37.134Z,68.38
2023-05-03T08:17:26.300Z,68.69
2023-05-03T08:20:15.601Z,68.66
2023-05-03T08:23:04.139Z,66.50
2023-05-03T08:25:52.700Z,66.48
2023-05-03T08:28:42.929Z,66.12
2023-05-03T08:31:31.749Z,66.00
2023-05-03T08:34:20.274Z,63.70
2023-05-03T08:37:08.775Z,63.03
2023-05-03T08:39:57.293Z,62.76
2023-05-03T08:42:47.041Z,62.11
2023-05-03T08:45:37.147Z,63.95
2023-05-03T08:48:25.704Z,64.31
2023-05-03T08:51:15.058Z,65.51
2023-05-03T08:54:03.833Z,64.26
2023-05-03T08:56:52.680Z,63.90
2023-05-03T08:59:50.550Z,63.36
2023-05-03T09:02:41.167Z,62.56
2023-05-03T09:05:38.977Z,62.18
2023-05-03T09:08:28.146Z,62.48
2023-05-03T09:11:23.835Z,62.42
2023-05-03T09:14:13.913Z,63.11
2023-05-03T09:17:16.514Z,63.83
2023-05-03T09:20:09.020Z,62.88
2023-05-03T09:22:57.607Z,63.65
2023-05-03T09:25:47.392Z,61.93
2023-05-03T09:28:42.366Z,61.85
2023-05-03T09:31:32.068Z,63.07
2023-05-03T09:34:23.559Z,60.93
2023-05-03T09:37:14.772Z,60.10
2023-05-03T09:40:08.691Z,61.05
2023-05-03T09:43:09.169Z,60.55
2023-05-03T09:46:09.704Z,61.47
2023-05-03T09:48:58.315Z,60.36
2023-05-03T09:51:46.911Z,59.86
2023-05-03T09:54:36.877Z,59.84
2023-05-03T09:57:25.887Z,60.15
2023-05-03T10:00:16.857Z,59.07
2023-05-03T10:03:09.179Z,60.05
2023-05-03T10:06:00.663Z,59.20
2023-05-03T10:08:52.734Z,58.07
2023-05-03T10:11:45.596Z,59.54
2023-05-03T10:14:34.108Z,59.25
2023-05-03T10:17:39.486Z,59.12
2023-05-03T10:20:37.575Z,60.10
2023-05-03T10:23:29.169Z,60.42
2023-05-03T10:26:17.737Z,60.85
2023-05-03T10:29:08.252Z,59.57
2023-05-03T10:31:56.992Z,59.32
2023-05-03T10:34:46.445Z,58.75
2023-05-03T10:37:36.093Z,59.75
2023-05-03T10:40:25.013Z,59.42
2023-05-03T10:43:44.663Z,59.44
2023-05-03T10:46:36.442Z,59.33
2023-05-03T10:49:26.448Z,57.00
2023-05-03T10:52:49.692Z,57.40
2023-05-03T10:55:38.586Z,58.41
2023-05-03T10:58:27.083Z,58.89
2023-05-03T11:01:17.301Z,59.73
2023-05-03T11:04:09.441Z,58.94
2023-05-03T11:06:58.974Z,59.37
2023-05-03T11:09:47.921Z,59.01
2023-05-03T11:12:36.545Z,57.61
2023-05-03T11:15:25.062Z,58.07
2023-05-03T11:18:13.655Z,57.06
2023-05-03T11:21:03.806Z,57.00
2023-05-03T11:23:52.320Z,54.99
2023-05-03T11:26:40.984Z,55.20
2023-05-03T11:29:29.565Z,56.70
2023-05-03T11:32:19.363Z,58.06
2023-05-03T11:35:08.437Z,56.20
2023-05-03T11:37:58.486Z,57.36
2023-05-03T11:40:47.057Z,57.71
2023-05-03T11:43:36.914Z,56.90
2023-05-03T11:46:28.684Z,55.39
2023-05-03T11:49:19.746Z,54.72
2023-05-03T11:52:08.965Z,55.45
2023-05-03T11:54:58.902Z,56.30
2023-05-03T11:57:47.426Z,54.31
2023-05-03T12:00:37.770Z,54.18
2023-05-03T12:03:31.213Z,54.92
2023-05-03T12:06:21.790Z,55.13
2023-05-03T12:09:16.793Z,53.64
2023-05-03T12:12:10.704Z,53.13
2023-05-03T12:15:03.830Z,54.34
2023-05-03T12:17:59.947Z,53.41
2023-05-03T12:21:30.195Z,54.03
2023-05-03T12:24:06.609Z,53.07
2023-05-03T12:26:57.309Z,52.28
2023-05-03T12:29:47.819Z,51.98
2023-05-03T12:32:38.887Z,50.32
2023-05-03T12:35:28.382Z,50.72
2023-05-03T12:38:18.024Z,51.07
2023-05-03T12:41:09.198Z,51.43
2023-05-03T12:44:03.012Z,50.36
2023-05-03T12:46:53.609Z,51.23
2023-05-03T12:49:45.916Z,50.32
2023-05-03T12:52:38.189Z,50.03
2023-05-03T12:55:27.742Z,47.73
2023-05-03T13:01:46.910Z,49.51
2023-05-03T13:04:56.098Z,48.37
2023-05-03T13:07:32.708Z,49.01
2023-05-03T13:10:29.632Z,48.16
2023-05-03T13:13:18.411Z,48.67
2023-05-03T13:16:08.047Z,48.69
2023-05-03T13:18:56.647Z,48.39
2023-05-03T13:21:48.105Z,48.78
2023-05-03T13:24:36.788Z,49.54
2023-05-03T13:27:25.348Z,48.46
2023-05-03T13:30:14.489Z,48.33
2023-05-03T13:33:03.058Z,47.05
2023-05-03T13:35:51.562Z,48.03
2023-05-03T13:38:41.892Z,47.69
2023-05-03T13:41:30.526Z,46.74
2023-05-03T13:44:19.308Z,47.50
2023-05-03T13:47:07.820Z,48.02
2023-05-03T13:49:57.200Z,47.53
2023-05-03T13:52:45.950Z,48.40
2023-05-03T13:55:35.879Z,46.53
2023-05-03T13:58:24.393Z,47.39
2023-05-03T14:01:13.715Z,47.17
2023-05-03T14:04:02.382Z,47.32
2023-05-03T14:06:50.947Z,47.77
2023-05-03T14:09:39.641Z,46.97
2023-05-03T14:12:29.601Z,47.06
2023-05-03T14:15:18.943Z,47.02
2023-05-03T14:18:07.929Z,47.06
2023-05-03T14:20:57.083Z,47.53
2023-05-03T14:23:46.030Z,47.48
2023-05-03T14:26:34.862Z,46.58
2023-05-03T14:29:24.692Z,47.30
2023-05-03T14:32:13.481Z,46.54
2023-05-03T14:35:01.969Z,46.24
2023-05-03T14:37:50.765Z,46.39
2023-05-03T14:40:39.350Z,46.49
2023-05-03T14:43:28.396Z,45.28
2023-05-03T14:46:18.253Z,45.02
2023-05-03T14:49:07.083Z,45.00
2023-05-03T14:51:55.685Z,44.59
2023-05-03T14:54:44.524Z,44.82
2023-05-03T14:57:33.794Z,44.91
2023-05-03T15:00:22.420Z,44.77
2023-05-03T15:03:13.063Z,44.85
2023-05-03T15:06:01.605Z,45.25
2023-05-03T15:08:51.369Z,46.54
2023-05-03T15:11:40.020Z,45.29
2023-05-03T15:14:28.816Z,44.08
2023-05-03T15:17:17.527Z,44.38
2023-05-03T15:20:10.295Z,45.32
2023-05-03T15:22:58.811Z,45.54
2023-05-03T15:25:47.329Z,44.71
2023-05-03T15:28:35.793Z,45.17
2023-05-03T15:31:24.507Z,45.01
2023-05-03T15:34:13.077Z,45.99
2023-05-03T15:37:03.059Z,45.72
2023-05-03T15:39:51.707Z,45.82
2023-05-03T15:42:40.615Z,46.23
2023-05-03T15:45:29.147Z,45.77
2023-05-03T15:48:17.696Z,46.70
2023-05-03T15:51:06.564Z,46.31
2023-05-03T15:53:56.517Z,46.61
2023-05-03T15:56:45.309Z,46.64
2023-05-03T15:59:33.863Z,46.77
2023-05-03T16:02:22.529Z,46.41
2023-05-03T16:05:12.525Z,46.69
2023-05-03T16:08:01.147Z,47.04
2023-05-03T16:10:51.363Z,46.93
2023-05-03T16:13:39.965Z,46.03
2023-05-03T16:16:28.570Z,46.36
2023-05-03T16:19:17.084Z,46.72
2023-05-03T16:22:05.917Z,46.27
2023-05-03T16:24:54.461Z,45.88
2023-05-03T16:27:44.492Z,46.46
2023-05-03T16:30:33.653Z,46.64
2023-05-03T16:33:22.187Z,45.69
2023-05-03T16:36:11.291Z,45.43
2023-05-03T16:39:00.094Z,46.13
2023-05-03T16:41:48.614Z,46.39
2023-05-03T16:44:38.711Z,45.80
2023-05-03T16:47:27.311Z,46.36
2023-05-03T16:50:17.525Z,46.14
2023-05-03T16:53:06.095Z,45.97
2023-05-03T16:55:55.309Z,46.09
2023-05-03T16:58:44.531Z,45.54
2023-05-03T17:01:34.473Z,45.11
2023-05-03T17:04:23.462Z,46.43
2023-05-03T17:07:12.000Z,46.06
2023-05-03T17:10:01.107Z,46.41
2023-05-03T17:12:49.699Z,45.94
2023-05-03T17:15:38.416Z,46.11
2023-05-03T17:18:28.726Z,46.15
2023-05-03T17:21:19.087Z,46.49
2023-05-03T17:24:08.527Z,46.50
2023-05-03T17:26:57.049Z,47.15
2023-05-03T17:29:45.531Z,47.33
2023-05-03T17:32:34.431Z,46.97
2023-05-03T17:35:24.304Z,47.16
2023-05-03T17:38:12.844Z,46.88
2023-05-03T17:41:04.877Z,46.95
2023-05-03T17:43:53.671Z,47.83
2023-05-03T17:46:42.999Z,47.58
2023-05-03T17:49:33.515Z,48.40
2023-05-03T17:52:23.348Z,48.42
2023-05-03T17:55:12.234Z,48.58
2023-05-03T17:58:00.788Z,48.21
2023-05-03T18:00:49.357Z,48.10
2023-05-03T18:03:38.376Z,48.67
2023-05-03T18:06:28.034Z,48.77
2023-05-03T18:09:18.115Z,48.67
2023-05-03T18:12:07.286Z,49.25
2023-05-03T18:14:59.458Z,49.32
2023-05-03T18:17:48.381Z,49.98
2023-05-03T18:20:37.105Z,49.90
2023-05-03T18:23:25.594Z,50.31
2023-05-03T18:26:15.389Z,50.67
2023-05-03T18:29:04.033Z,50.54
2023-05-03T18:31:54.676Z,51.06
2023-05-03T18:34:43.559Z,50.99
2023-05-03T18:37:32.075Z,51.74
2023-05-03T18:40:20.734Z,51.29
2023-05-03T18:43:10.655Z,52.04
2023-05-03T18:45:59.270Z,52.42
2023-05-03T18:48:48.218Z,52.62
2023-05-03T18:51:37.086Z,53.26
2023-05-03T18:54:25.632Z,53.41
2023-05-03T18:57:14.223Z,53.90
2023-05-03T19:00:06.359Z,53.84
2023-05-03T19:02:54.904Z,53.86
2023-05-03T19:05:43.558Z,54.55
2023-05-03T19:08:32.135Z,54.60
2023-05-03T19:11:20.707Z,54.99
2023-05-03T19:14:09.367Z,55.07
2023-05-03T19:16:59.624Z,55.29
2023-05-03T19:19:48.446Z,55.62
2023-05-03T19:22:37.215Z,55.71
2023-05-03T19:25:25.771Z,56.32
2023-05-03T19:28:14.264Z,56.72
2023-05-03T19:31:04.259Z,56.85
2023-05-03T19:33:54.435Z,57.40
2023-05-03T19:36:42.924Z,57.08
2023-05-03T19:39:35.475Z,57.94
2023-05-03T19:42:23.984Z,58.14
2023-05-03T19:45:13.339Z,57.78
2023-05-03T19:48:01.943Z,58.66
2023-05-03T19:50:51.871Z,58.42
2023-05-03T19:53:40.343Z,58.32
2023-05-03T19:56:29.138Z,57.95
2023-05-03T19:59:18.107Z,58.34
2023-05-03T20:02:07.497Z,58.72
2023-05-03T20:04:56.330Z,59.31
2023-05-03T20:07:47.064Z,60.30
2023-05-03T20:10:37.059Z,61.25
2023-05-03T20:13:27.577Z,61.51
2023-05-03T20:16:16.996Z,62.18
2023-05-03T20:19:06.970Z,62.93
2023-05-03T20:21:55.505Z,62.80
2023-05-03T20:24:45.784Z,63.01
2023-05-03T20:27:34.292Z,63.07
2023-05-03T20:30:23.222Z,63.04
2023-05-03T20:33:12.375Z,63.16
2023-05-03T20:36:00.932Z,65.79
2023-05-03T20:38:49.647Z,66.79
2023-05-03T20:41:39.472Z,67.19
2023-05-03T20:44:28.525Z,67.65
2023-05-03T20:47:17.081Z,68.62
2023-05-03T20:50:06.969Z,69.46
2023-05-03T20:52:56.312Z,69.54
2023-05-03T20:55:45.054Z,70.04
2023-05-03T20:58:35.159Z,70.48
2023-05-03T21:01:23.718Z,70.76
2023-05-03T21:04:12.177Z,71.23
2023-05-03T21:07:00.630Z,71.47
2023-05-03T21:09:49.343Z,71.26
2023-05-03T21:12:37.908Z,70.55
2023-05-03T21:15:29.696Z,70.98
2023-05-03T21:18:19.061Z,71.66
2023-05-03T21:21:07.858Z,71.30
2023-05-03T21:23:56.305Z,69.87
2023-05-03T21:26:44.796Z,70.28
2023-05-03T21:29:33.454Z,70.99
2023-05-03T21:32:23.295Z,70.67
2023-05-03T21:35:12.000Z,70.23
2023-05-03T21:38:00.523Z,70.29
2023-05-03T21:40:48.960Z,70.57
2023-05-03T21:43:37.550Z,71.44
2023-05-03T21:46:26.077Z,72.08
2023-05-03T21:49:16.093Z,72.51
2023-05-03T21:52:04.922Z,72.70
2023-05-03T21:54:53.449Z,72.63
2023-05-03T21:57:41.915Z,72.73
2023-05-03T22:00:31.670Z,72.81
2023-05-03T22:03:20.259Z,73.21
2023-05-03T22:06:10.813Z,73.99
2023-05-03T22:08:59.721Z,74.41
2023-05-03T22:11:48.439Z,74.52
2023-05-03T22:14:36.909Z,75.16
2023-05-03T22:17:25.997Z,75.53
2023-05-03T22:20:14.768Z,76.00
2023-05-03T22:23:04.674Z,76.66
2023-05-03T22:25:53.245Z,77.20
2023-05-03T22:28:41.746Z,77.80
2023-05-03T22:31:31.137Z,78.36
2023-05-03T22:34:19.702Z,79.01
2023-05-03T22:37:08.179Z,79.63
2023-05-03T22:39:58.052Z,80.35
2023-05-03T22:42:46.749Z,81.23
2023-05-03T22:45:35.328Z,81.71
2023-05-03T22:48:29.547Z,82.00
2023-05-03T22:51:18.015Z,82.73
2023-05-03T22:54:06.616Z,83.36
2023-05-03T22:56:58.486Z,83.75
2023-05-03T22:59:47.011Z,84.57
2023-05-03T23:02:35.804Z,84.94
2023-05-03T23:05:24.298Z,85.46
2023-05-03T23:08:13.741Z,85.92
2023-05-03T23:11:02.229Z,86.37
2023-05-03T23:13:52.277Z,85.96
2023-05-03T23:16:40.824Z,87.11
2023-05-03T23:19:29.297Z,88.51
2023-05-03T23:22:18.051Z,88.49
2023-05-03T23:25:06.935Z,89.04
2023-05-03T23:27:55.438Z,89.01
2023-05-03T23:30:46.223Z,89.66
2023-05-03T23:33:35.320Z,89.99
2023-05-03T23:36:23.859Z,90.09
2023-05-03T23:39:12.640Z,91.10
2023-05-03T23:42:01.116Z,91.29
2023-05-03T23:44:55.423Z,91.97
2023-05-03T23:47:45.993Z,91.65
2023-05-03T23:50:34.437Z,92.79
2023-05-03T23:53:22.862Z,93.28
2023-05-03T23:56:11.676Z,93.19
2023-05-03T23:59:01.427Z,93.94
